Time;durP1;ratioP1;P1;durP2;ratioP2;P2;SDS_P1;SDS_P2;PMS_P1;PMS_P2;Temp;Humidity;BMP_temperature;BMP_pressure;BME280_temperature;BME280_humidity;BME280_pressure;Samples;Min_cycle;Max_cycle;Signal;HPM_P1;HPM_P2
2021/07/02 00:00:10;;;;;;;8.35;5.00;;;;;;;15.88;83.76;100921.44;5014202;28;20041;-70
2021/07/02 00:02:36;;;;;;;9.55;4.80;;;;;;;15.97;83.23;100924.31;5021649;28;20025;-70
2021/07/02 00:05:03;;;;;;;8.18;5.18;;;;;;;16.04;83.09;100921.06;5029719;28;20112;-71
2021/07/02 00:07:29;;;;;;;11.93;7.07;;;;;;;15.95;84.17;100926.00;5014147;28;20456;-70
2021/07/02 00:09:55;;;;;;;12.00;6.22;;;;;;;16.04;84.42;100920.22;5012890;28;20025;-70
2021/07/02 00:12:20;;;;;;;11.65;7.45;;;;;;;15.99;84.33;100920.06;5013999;28;20031;-70
2021/07/02 00:14:46;;;;;;;13.30;8.32;;;;;;;15.88;86.31;100935.28;5013895;28;20029;-70
2021/07/02 00:17:11;;;;;;;12.70;7.72;;;;;;;15.89;85.71;100936.19;5029110;28;20041;-70
2021/07/02 00:19:37;;;;;;;12.73;8.20;;;;;;;15.94;85.78;100934.63;5013709;28;20471;-70
2021/07/02 00:22:02;;;;;;;18.90;8.55;;;;;;;15.97;85.75;100933.84;5029167;28;20040;-70
2021/07/02 00:24:28;;;;;;;13.98;8.15;;;;;;;16.04;85.15;100926.28;4996410;28;20022;-69
2021/07/02 00:26:53;;;;;;;13.27;8.20;;;;;;;16.02;85.77;100927.94;4994054;28;20029;-70
2021/07/02 00:29:19;;;;;;;15.20;8.52;;;;;;;16.12;85.34;100928.22;4992961;28;20109;-69
2021/07/02 00:31:44;;;;;;;12.93;8.52;;;;;;;16.12;85.29;100925.63;5009231;28;20033;-69
2021/07/02 00:34:10;;;;;;;13.77;8.55;;;;;;;16.08;85.77;100932.47;5009231;28;20034;-69
2021/07/02 00:36:35;;;;;;;17.42;8.40;;;;;;;15.99;85.66;100937.38;4993987;28;20053;-70
2021/07/02 00:39:01;;;;;;;13.18;9.95;;;;;;;16.06;86.62;100942.78;4994011;28;20037;-69
2021/07/02 00:41:26;;;;;;;17.83;10.15;;;;;;;16.02;86.32;100938.34;4993850;28;20030;-70
2021/07/02 00:43:54;;;;;;;14.10;10.55;;;;;;;15.76;88.37;100940.94;4993438;28;20038;-69
2021/07/02 00:46:20;;;;;;;14.90;10.93;;;;;;;15.81;89.50;100943.69;4996162;28;20022;-70
2021/07/02 00:48:46;;;;;;;17.30;11.85;;;;;;;15.85;90.01;100934.28;5027627;28;20472;-69
2021/07/02 00:51:12;;;;;;;21.83;12.30;;;;;;;15.86;89.52;100941.25;5028346;28;20117;-70
2021/07/02 00:53:40;;;;;;;17.08;12.30;;;;;;;15.86;91.76;100941.25;5013538;28;20030;-70
2021/07/02 00:56:05;;;;;;;18.08;12.85;;;;;;;15.99;92.05;100943.44;5013244;28;20048;-70
2021/07/02 00:58:35;;;;;;;19.40;13.50;;;;;;;15.99;91.86;100938.25;5013316;28;20415;-70
2021/07/02 01:01:01;;;;;;;23.95;13.05;;;;;;;15.99;91.83;100938.25;5013426;28;20052;-70
2021/07/02 01:03:27;;;;;;;22.33;14.07;;;;;;;16.10;94.35;100936.00;5013559;28;20033;-69
2021/07/02 01:05:53;;;;;;;24.13;14.73;;;;;;;16.18;94.87;100933.59;5013207;28;20022;-70
2021/07/02 01:08:19;;;;;;;23.13;14.38;;;;;;;16.23;92.69;100932.03;5013223;28;20021;-69
2021/07/02 01:10:44;;;;;;;26.50;15.15;;;;;;;16.41;92.55;100930.81;5027775;28;20100;-70
2021/07/02 01:13:10;;;;;;;21.15;15.52;;;;;;;16.29;92.39;100927.03;5028172;28;20030;-69
2021/07/02 01:15:36;;;;;;;31.40;15.75;;;;;;;16.30;92.21;100933.13;5028350;28;20021;-69
2021/07/02 01:18:06;;;;;;;22.95;16.83;;;;;;;16.41;92.82;100920.44;5028210;28;20048;-69
2021/07/02 01:20:32;;;;;;;28.63;17.13;;;;;;;16.40;93.54;100934.25;5028382;28;20502;-69
2021/07/02 01:22:58;;;;;;;24.83;17.95;;;;;;;16.40;92.84;100929.06;5013003;28;20097;-70
2021/07/02 01:25:30;;;;;;;27.20;18.25;;;;;;;16.50;92.11;100931.13;5011678;28;20512;-70
2021/07/02 01:27:56;;;;;;;31.55;17.92;;;;;;;16.39;93.10;100937.69;5028391;28;20033;-70
2021/07/02 01:30:22;;;;;;;31.92;18.05;;;;;;;16.35;92.87;100929.81;5028206;28;20034;-70
2021/07/02 01:32:47;;;;;;;37.50;19.40;;;;;;;16.50;92.18;100936.31;5027804;28;20026;-69
2021/07/02 01:35:13;;;;;;;31.52;20.00;;;;;;;16.53;92.23;100941.63;5012436;28;20479;-70
2021/07/02 01:37:38;;;;;;;31.85;21.00;;;;;;;16.50;93.28;100941.53;5012259;28;20026;-70
2021/07/02 01:40:05;;;;;;;32.15;20.98;;;;;;;16.64;92.06;100945.41;5011853;28;20021;-70
2021/07/02 01:42:30;;;;;;;36.53;22.65;;;;;;;16.52;92.33;100939.84;5011511;28;20062;-70
2021/07/02 01:44:56;;;;;;;31.38;20.10;;;;;;;16.72;91.40;100947.34;5012837;28;20439;-70
2021/07/02 01:47:22;;;;;;;43.08;23.70;;;;;;;16.56;92.24;100941.72;5011666;28;20117;-70
2021/07/02 01:49:48;;;;;;;38.15;22.30;;;;;;;16.69;91.10;100937.72;5011448;28;20029;-70
2021/07/02 01:52:15;;;;;;;36.38;22.45;;;;;;;16.71;90.82;100946.44;5006357;28;20033;-69
2021/07/02 01:54:40;;;;;;;36.90;23.48;;;;;;;16.73;90.69;100943.91;5030680;28;20439;-70
2021/07/02 01:57:11;;;;;;;40.60;23.42;;;;;;;16.83;90.18;100945.94;5017421;28;20065;-70
2021/07/02 01:59:37;;;;;;;39.72;23.48;;;;;;;16.84;89.93;100946.81;5017081;28;20049;-71
2021/07/02 02:02:03;;;;;;;39.35;23.70;;;;;;;16.85;89.10;100949.47;5015200;28;20024;-71
2021/07/02 02:04:29;;;;;;;46.03;24.33;;;;;;;16.84;88.88;100947.69;5015209;28;20026;-70
2021/07/02 02:06:54;;;;;;;40.55;23.45;;;;;;;16.74;88.32;100943.06;5016474;28;20058;-70
2021/07/02 02:09:19;;;;;;;42.38;23.15;;;;;;;16.79;88.46;100946.69;5016470;28;20053;-71
2021/07/02 02:11:45;;;;;;;43.65;23.98;;;;;;;16.93;87.88;100947.97;5016316;28;20065;-70
2021/07/02 02:14:10;;;;;;;46.55;24.58;;;;;;;16.93;87.25;100953.16;5015021;28;20025;-71
2021/07/02 02:16:37;;;;;;;43.42;23.65;;;;;;;16.90;87.11;100953.06;5015983;28;20121;-71
2021/07/02 02:19:03;;;;;;;42.53;24.08;;;;;;;16.90;87.48;100953.06;5016286;28;20026;-71
2021/07/02 02:21:29;;;;;;;42.92;24.30;;;;;;;16.82;87.45;100954.56;5031356;28;20045;-71
2021/07/02 02:23:55;;;;;;;45.55;24.60;;;;;;;16.88;87.54;100954.75;5025672;28;20036;-71
2021/07/02 02:26:21;;;;;;;49.45;25.13;;;;;;;16.77;87.33;100957.03;5020566;28;20033;-70
2021/07/02 02:28:46;;;;;;;45.63;24.05;;;;;;;16.89;87.51;100956.50;5034616;28;20030;-70
2021/07/02 02:31:12;;;;;;;44.08;25.10;;;;;;;16.90;87.10;100957.38;5035754;28;20029;-70
2021/07/02 02:33:37;;;;;;;48.10;25.33;;;;;;;16.83;87.48;100951.13;5035874;28;20022;-70
2021/07/02 02:36:04;;;;;;;47.25;23.60;;;;;;;16.90;87.37;100953.06;5024382;28;20486;-70
2021/07/02 02:38:30;;;;;;;48.53;26.52;;;;;;;16.95;86.79;100955.78;5031207;28;20041;-70
2021/07/02 02:40:55;;;;;;;54.67;25.48;;;;;;;16.86;87.68;100961.63;5015925;28;20472;-70
2021/07/02 02:43:21;;;;;;;48.42;25.52;;;;;;;16.71;87.80;100956.00;5015867;28;20038;-70
2021/07/02 02:45:46;;;;;;;52.28;25.80;;;;;;;16.79;87.12;100957.09;5015793;28;20021;-70
2021/07/02 02:48:12;;;;;;;43.30;24.08;;;;;;;16.75;86.90;100958.72;5015716;28;20053;-71
2021/07/02 02:50:37;;;;;;;51.60;25.27;;;;;;;16.73;87.54;100951.72;5015710;28;20041;-70
2021/07/02 02:53:03;;;;;;;45.15;24.17;;;;;;;16.79;87.01;100949.28;5030708;28;20021;-71
2021/07/02 02:55:28;;;;;;;50.78;24.52;;;;;;;16.90;86.91;100958.28;5030539;28;20438;-70
2021/07/02 02:57:54;;;;;;;52.15;24.05;;;;;;;16.86;86.45;100966.84;5015348;28;20032;-69
2021/07/02 03:00:19;;;;;;;43.30;23.20;;;;;;;16.70;87.53;100964.63;5015529;28;20117;-70
2021/07/02 03:02:45;;;;;;;47.70;24.20;;;;;;;16.69;87.44;100968.06;5015313;28;20037;-69
2021/07/02 03:05:10;;;;;;;46.13;22.00;;;;;;;16.69;86.46;100970.66;5014884;28;20088;-69
2021/07/02 03:07:37;;;;;;;40.85;22.10;;;;;;;16.73;86.32;100970.78;5015416;28;20072;-69
2021/07/02 03:10:04;;;;;;;41.40;20.50;;;;;;;16.77;85.30;100979.56;5030376;28;20041;-69
2021/07/02 03:12:30;;;;;;;34.85;20.70;;;;;;;16.92;84.50;100977.41;5013887;28;20382;-70
2021/07/02 03:14:55;;;;;;;34.05;19.55;;;;;;;16.85;84.83;100978.06;5015616;28;20113;-70
2021/07/02 03:17:21;;;;;;;33.05;19.17;;;;;;;16.92;84.39;100982.63;5030202;28;20046;-69
2021/07/02 03:19:47;;;;;;;34.97;20.52;;;;;;;16.93;84.71;100986.97;5014957;28;20045;-70
2021/07/02 03:22:12;;;;;;;40.22;20.25;;;;;;;16.80;84.83;100992.66;5015017;28;20030;-70
2021/07/02 03:24:38;;;;;;;43.50;19.88;;;;;;;16.78;85.11;100990.00;5030344;28;20021;-69
2021/07/02 03:27:03;;;;;;;34.05;19.90;;;;;;;16.84;84.23;100989.31;5015310;28;20033;-70
2021/07/02 03:29:29;;;;;;;32.00;18.48;;;;;;;16.96;83.63;100988.78;5015238;28;20037;-69
2021/07/02 03:31:54;;;;;;;37.50;19.30;;;;;;;16.78;82.89;100991.75;5030173;28;20471;-70
2021/07/02 03:34:19;;;;;;;38.88;17.83;;;;;;;16.64;82.82;100992.22;5014842;28;20025;-70
2021/07/02 03:36:45;;;;;;;30.63;16.48;;;;;;;16.57;82.83;101000.69;5014399;28;20038;-70
2021/07/02 03:39:10;;;;;;;30.30;15.52;;;;;;;16.55;82.56;101007.56;5030064;28;20037;-69
2021/07/02 03:41:36;;;;;;;32.92;15.95;;;;;;;16.47;83.12;101003.84;5013431;28;20052;-70
2021/07/02 03:44:01;;;;;;;32.92;16.00;;;;;;;16.43;82.50;101007.13;5030072;28;20056;-70
2021/07/02 03:46:27;;;;;;;28.73;15.48;;;;;;;16.40;82.23;101017.44;5014731;28;20124;-69
2021/07/02 03:48:52;;;;;;;33.63;16.75;;;;;;;16.39;81.85;101011.38;5029961;28;20026;-69
2021/07/02 03:51:18;;;;;;;29.10;16.08;;;;;;;16.56;81.96;101013.63;5029983;28;20433;-69
2021/07/02 03:53:43;;;;;;;30.10;16.00;;;;;;;16.62;81.66;101014.69;5029883;28;20030;-70
2021/07/02 03:56:09;;;;;;;33.97;15.45;;;;;;;16.51;81.68;101016.09;5014548;28;20025;-70
2021/07/02 03:58:35;;;;;;;37.15;16.15;;;;;;;16.42;81.68;101015.78;5014403;28;20034;-70
2021/07/02 04:01:01;;;;;;;32.85;16.52;;;;;;;16.51;80.96;101016.09;5034191;28;20029;-70
2021/07/02 04:03:29;;;;;;;26.67;15.63;;;;;;;16.25;81.92;101018.72;5024530;28;20025;-69
2021/07/02 04:05:54;;;;;;;31.23;16.10;;;;;;;16.28;81.85;101024.03;5020874;28;20549;-69
2021/07/02 04:08:20;;;;;;;43.67;18.45;;;;;;;16.24;81.64;101026.50;5021377;28;20049;-70
2021/07/02 04:10:46;;;;;;;29.05;17.33;;;;;;;16.43;81.74;101022.75;5014853;28;20045;-70
2021/07/02 04:13:12;;;;;;;41.30;17.30;;;;;;;16.52;81.46;101027.34;5012891;28;20392;-70
2021/07/02 04:15:38;;;;;;;31.35;16.40;;;;;;;16.54;81.46;101037.00;5014163;28;20479;-70
2021/07/02 04:18:06;;;;;;;35.25;16.65;;;;;;;16.61;80.76;101028.53;5011770;28;20042;-70
2021/07/02 04:20:32;;;;;;;34.58;16.73;;;;;;;16.60;81.12;101031.97;5012815;28;20044;-70
2021/07/02 04:22:58;;;;;;;37.20;18.23;;;;;;;16.53;81.02;101034.31;5012341;28;20086;-70
2021/07/02 04:25:23;;;;;;;33.00;16.30;;;;;;;16.17;81.91;101030.59;5013886;28;20034;-70
2021/07/02 04:27:49;;;;;;;32.83;16.35;;;;;;;16.32;81.84;101036.28;5019713;28;20026;-70
2021/07/02 04:30:14;;;;;;;33.83;16.27;;;;;;;16.29;81.87;101031.00;5033660;28;20029;-70
2021/07/02 04:32:40;;;;;;;31.00;16.95;;;;;;;16.32;82.05;101036.28;5016968;28;20030;-70
2021/07/02 04:35:09;;;;;;;33.15;17.23;;;;;;;16.16;82.65;101039.22;5029097;28;20029;-70
2021/07/02 04:37:36;;;;;;;35.30;14.95;;;;;;;16.05;83.29;101037.16;5012416;28;20025;-71
2021/07/02 04:40:03;;;;;;;40.15;17.83;;;;;;;16.09;83.15;101037.25;5028950;28;20026;-69
2021/07/02 04:42:29;;;;;;;32.65;17.48;;;;;;;16.27;82.30;101032.66;5013574;28;20033;-70
2021/07/02 04:44:54;;;;;;;36.17;17.05;;;;;;;16.57;82.01;101037.09;5014035;28;20340;-70
2021/07/02 04:47:20;;;;;;;32.83;15.18;;;;;;;16.55;81.71;101033.56;5027770;28;20053;-70
2021/07/02 04:49:45;;;;;;;33.58;16.38;;;;;;;16.75;80.91;101030.66;5013629;28;20121;-70
2021/07/02 04:52:11;;;;;;;37.47;17.00;;;;;;;16.55;81.26;101041.34;5012196;28;20124;-70
2021/07/02 04:54:36;;;;;;;31.35;15.85;;;;;;;16.72;81.18;101040.97;5013487;28;20022;-70
2021/07/02 04:57:02;;;;;;;36.53;17.50;;;;;;;16.83;80.39;101043.88;5012582;28;20018;-70
2021/07/02 04:59:35;;;;;;;33.63;16.58;;;;;;;16.56;80.97;101050.91;5012404;28;20026;-70
2021/07/02 05:02:00;;;;;;;40.25;15.80;;;;;;;16.46;81.27;101048.88;5011933;28;20026;-70
2021/07/02 05:04:26;;;;;;;25.52;15.05;;;;;;;16.60;81.41;101047.56;5012948;28;20048;-70
2021/07/02 05:06:52;;;;;;;35.85;15.40;;;;;;;16.64;80.69;101052.03;5028653;28;20427;-70
2021/07/02 05:09:18;;;;;;;41.20;14.90;;;;;;;16.38;81.76;101042.50;5028596;28;20088;-70
2021/07/02 05:11:43;;;;;;;33.47;15.98;;;;;;;16.32;82.04;101041.47;5028384;28;20025;-70
2021/07/02 05:14:08;;;;;;;30.67;14.23;;;;;;;16.32;81.72;101041.47;5013184;28;20030;-70
2021/07/02 05:16:34;;;;;;;30.90;13.82;;;;;;;16.38;81.33;101039.91;5013054;28;20080;-70
2021/07/02 05:19:00;;;;;;;26.55;13.68;;;;;;;16.24;81.81;101052.47;5028139;28;20037;-70
2021/07/02 05:21:26;;;;;;;24.48;12.38;;;;;;;16.32;81.01;101051.88;5011889;28;20458;-70
2021/07/02 05:23:51;;;;;;;27.17;12.40;;;;;;;16.53;80.13;101049.94;5013158;28;20034;-70
2021/07/02 05:26:16;;;;;;;22.20;12.25;;;;;;;16.44;80.12;101050.53;5028192;28;20415;-69
2021/07/02 05:28:42;;;;;;;23.25;12.10;;;;;;;16.74;79.54;101044.50;5028079;28;20057;-70
2021/07/02 05:31:08;;;;;;;26.85;11.43;;;;;;;16.32;79.46;101041.47;5013514;28;20034;-70
2021/07/02 05:33:33;;;;;;;29.08;12.80;;;;;;;16.35;80.22;101046.78;5026939;28;20021;-70
2021/07/02 05:35:59;;;;;;;20.70;11.23;;;;;;;16.42;79.54;101047.88;5008514;28;20076;-70
2021/07/02 05:38:25;;;;;;;31.90;13.52;;;;;;;16.47;79.17;101055.84;5008357;28;20453;-70
2021/07/02 05:40:54;;;;;;;26.38;12.15;;;;;;;16.68;78.59;101054.72;5008383;28;20058;-70
2021/07/02 05:43:21;;;;;;;25.10;12.55;;;;;;;16.57;78.70;101057.88;4993496;28;20034;-70
2021/07/02 05:45:47;;;;;;;20.45;11.80;;;;;;;16.55;77.94;101054.34;4993367;28;20030;-70
2021/07/02 05:48:14;;;;;;;22.55;11.23;;;;;;;16.60;77.95;101047.56;5008380;28;20034;-70
2021/07/02 05:50:39;;;;;;;24.35;11.13;;;;;;;16.61;77.14;101051.94;4993229;28;20506;-70
2021/07/02 05:53:05;;;;;;;22.90;11.90;;;;;;;16.58;77.37;101049.25;4993124;28;20069;-70
2021/07/02 05:55:30;;;;;;;20.30;11.50;;;;;;;16.78;75.67;101051.56;4993139;28;20037;-71
2021/07/02 05:57:56;;;;;;;23.33;10.55;;;;;;;16.75;75.88;101061.88;5015031;28;20092;-70
2021/07/02 06:00:21;;;;;;;23.02;11.93;;;;;;;17.09;74.96;101057.72;5012701;28;20120;-69
2021/07/02 06:02:47;;;;;;;26.20;10.95;;;;;;;17.12;74.32;101052.59;5012580;28;20026;-71
2021/07/02 06:05:13;;;;;;;22.15;10.48;;;;;;;17.05;74.98;101061.06;5012871;28;20030;-71
2021/07/02 06:07:53;;;;;;;16.77;10.25;;;;;;;17.37;74.16;101050.69;5012747;28;20101;-71
2021/07/02 06:10:21;;;;;;;17.77;9.95;;;;;;;17.57;73.38;101061.66;5027887;28;20464;-71
2021/07/02 06:12:47;;;;;;;18.08;9.15;;;;;;;17.34;73.60;101058.41;5011246;28;20041;-70
2021/07/02 06:15:14;;;;;;;19.00;9.93;;;;;;;17.55;72.58;101059.88;5012656;28;20110;-70
2021/07/02 06:17:40;;;;;;;20.30;9.00;;;;;;;17.47;72.46;101060.50;5011154;28;20074;-70
2021/07/02 06:20:08;;;;;;;20.02;9.43;;;;;;;17.66;72.22;101055.81;5027963;28;20026;-70
2021/07/02 06:22:33;;;;;;;15.00;8.90;;;;;;;17.66;71.62;101061.91;5027715;28;20022;-70
2021/07/02 06:24:59;;;;;;;18.92;8.18;;;;;;;17.64;71.41;101073.13;5012751;28;20036;-70
2021/07/02 06:27:24;;;;;;;23.15;9.32;;;;;;;17.96;70.58;101070.50;5027688;28;20440;-70
2021/07/02 06:29:50;;;;;;;15.40;7.78;;;;;;;17.91;70.05;101066.88;5027700;28;20076;-70
2021/07/02 06:32:15;;;;;;;20.13;8.48;;;;;;;18.02;69.27;101075.88;5026799;28;20041;-71
2021/07/02 06:34:41;;;;;;;12.70;6.95;;;;;;;18.10;68.99;101063.94;5027472;28;20041;-71
2021/07/02 06:37:06;;;;;;;15.13;6.75;;;;;;;18.22;68.23;101075.50;5012502;28;20595;-71
2021/07/02 06:39:31;;;;;;;12.20;7.15;;;;;;;18.03;67.45;101071.56;5012554;28;20033;-71
2021/07/02 06:41:57;;;;;;;16.10;6.53;;;;;;;18.38;67.47;101064.59;5015290;28;20088;-71
2021/07/02 06:44:22;;;;;;;14.75;6.97;;;;;;;18.39;67.90;101066.34;5015882;28;20026;-71
2021/07/02 06:46:48;;;;;;;24.75;9.20;;;;;;;18.11;68.82;101070.03;5002603;28;20045;-71
2021/07/02 06:49:13;;;;;;;13.57;6.70;;;;;;;18.16;69.25;101062.31;5011310;28;20034;-70
2021/07/02 06:51:39;;;;;;;15.82;7.18;;;;;;;18.29;68.48;101061.78;5013050;28;20053;-70
2021/07/02 06:54:04;;;;;;;20.50;7.82;;;;;;;18.30;68.29;101060.94;5014370;28;20084;-71
2021/07/02 06:56:30;;;;;;;13.05;6.65;;;;;;;18.37;68.89;101062.84;5039301;28;20021;-70
2021/07/02 06:58:56;;;;;;;20.33;7.82;;;;;;;18.43;68.48;101061.22;5023796;28;20021;-70
2021/07/02 07:01:23;;;;;;;16.35;7.95;;;;;;;18.32;68.24;101064.44;5025072;28;20433;-71
2021/07/02 07:03:48;;;;;;;14.15;6.85;;;;;;;18.63;67.87;101067.81;5023729;28;20539;-71
2021/07/02 07:06:14;;;;;;;18.17;7.50;;;;;;;19.12;66.47;101064.53;5024064;28;20109;-70
2021/07/02 07:08:40;;;;;;;15.55;7.55;;;;;;;19.20;65.52;101062.06;5023054;28;20434;-70
2021/07/02 07:11:05;;;;;;;16.10;7.32;;;;;;;19.23;65.21;101059.53;5024898;28;20029;-70
2021/07/02 07:13:31;;;;;;;14.55;6.63;;;;;;;19.36;65.05;101063.25;5021629;28;20132;-70
2021/07/02 07:15:56;;;;;;;17.38;7.18;;;;;;;19.29;65.81;101057.03;5023231;28;20025;-69
2021/07/02 07:18:22;;;;;;;13.05;6.95;;;;;;;19.22;67.37;101069.06;5027621;28;20029;-70
2021/07/02 07:20:48;;;;;;;13.18;6.72;;;;;;;19.25;64.12;101066.53;5028584;28;20025;-70
2021/07/02 07:23:13;;;;;;;13.68;6.63;;;;;;;19.42;64.74;101065.97;5024565;28;20029;-70
2021/07/02 07:25:39;;;;;;;11.10;6.65;;;;;;;19.75;64.15;101059.66;5025163;28;20048;-71
2021/07/02 07:28:05;;;;;;;13.60;6.57;;;;;;;20.24;62.55;101071.81;5021214;28;20026;-70
2021/07/02 07:30:30;;;;;;;10.95;6.60;;;;;;;20.28;61.75;101073.63;5022791;28;20467;-70
2021/07/02 07:32:56;;;;;;;12.40;6.57;;;;;;;19.56;62.57;101067.13;5024492;28;20036;-69
2021/07/02 07:37:51;;;;;;;14.70;6.93;;;;;;;19.75;63.11;101064.88;5022655;28;20033;-71
2021/07/02 07:40:17;;;;;;;15.65;6.47;;;;;;;20.24;61.65;101077.03;5023342;28;20061;-70
2021/07/02 07:42:42;;;;;;;11.85;6.93;;;;;;;20.79;59.85;101076.16;5021806;28;20022;-70
2021/07/02 07:45:08;;;;;;;13.43;6.78;;;;;;;21.37;58.48;101067.28;5026613;28;20056;-70
2021/07/02 07:47:34;;;;;;;19.58;6.55;;;;;;;21.23;58.33;101073.25;5022805;28;20056;-70
2021/07/02 07:50:00;;;;;;;18.23;6.07;;;;;;;21.10;58.87;101071.34;5021991;28;20049;-71
2021/07/02 07:52:39;;;;;;;11.23;6.22;;;;;;;21.00;58.68;101070.31;5023928;28;20022;-70
2021/07/02 07:55:04;;;;;;;10.68;5.93;;;;;;;20.66;58.96;101062.84;5006941;28;20463;-71
2021/07/02 07:57:30;;;;;;;14.73;6.63;;;;;;;20.22;59.57;101073.53;5024250;28;20117;-70
2021/07/02 07:59:56;;;;;;;14.27;6.60;;;;;;;20.36;59.67;101066.78;5023135;28;20089;-70
2021/07/02 08:02:21;;;;;;;11.30;6.22;;;;;;;20.37;60.62;101068.53;5018998;28;20455;-71
2021/07/02 08:04:46;;;;;;;14.98;7.10;;;;;;;20.43;59.60;101079.09;5038345;28;20060;-71
2021/07/02 08:07:12;;;;;;;12.18;6.80;;;;;;;20.12;61.87;101091.69;5021594;28;20037;-70
2021/07/02 08:09:37;;;;;;;16.95;7.32;;;;;;;20.11;60.88;101099.47;5021424;28;20124;-70
2021/07/02 08:12:04;;;;;;;12.88;6.32;;;;;;;20.76;59.30;101099.66;5019177;28;20018;-70
2021/07/02 08:14:29;;;;;;;12.23;6.00;;;;;;;20.83;58.92;101093.69;5016031;28;20068;-70
2021/07/02 08:16:54;;;;;;;13.55;6.32;;;;;;;21.09;57.41;101087.91;5018419;28;20364;-69
2021/07/02 08:19:20;;;;;;;10.85;5.90;;;;;;;21.53;56.54;101087.53;5020903;28;20029;-71
2021/07/02 08:21:45;;;;;;;11.45;5.97;;;;;;;21.72;55.50;101093.00;5021086;28;20067;-70
2021/07/02 08:24:11;;;;;;;13.02;6.70;;;;;;;21.06;56.96;101100.97;5021894;28;20109;-70
2021/07/02 08:26:36;;;;;;;15.05;5.70;;;;;;;21.12;57.01;101096.66;5019702;28;20025;-71
2021/07/02 08:31:46;;;;;;;10.70;5.95;;;;;;;22.03;53.89;101098.56;5022480;28;20406;-72
2021/07/02 08:34:12;;;;;;;16.40;6.10;;;;;;;21.47;54.72;101113.69;5023008;28;20033;-74
2021/07/02 08:36:37;;;;;;;12.48;5.63;;;;;;;21.71;54.29;101106.97;5022062;28;20064;-73
2021/07/02 08:39:03;;;;;;;13.93;6.05;;;;;;;21.51;54.71;101099.75;5022029;28;20040;-74
2021/07/02 08:41:29;;;;;;;10.40;6.15;;;;;;;21.99;54.59;101102.03;5022694;28;20143;-74
2021/07/02 08:43:55;;;;;;;10.85;6.13;;;;;;;21.36;56.54;101099.59;5019630;28;20029;-75
2021/07/02 08:46:21;;;;;;;14.50;5.63;;;;;;;21.30;57.66;101101.25;5021034;28;20440;-73
2021/07/02 08:48:48;;;;;;;10.00;5.07;;;;;;;21.64;53.95;101089.44;5017294;28;20048;-74
2021/07/02 08:51:15;;;;;;;10.02;5.57;;;;;;;22.55;52.22;101102.50;5033870;28;20437;-74
2021/07/02 08:53:41;;;;;;;10.73;5.90;;;;;;;22.62;53.51;101109.56;5020847;28;20070;-74
2021/07/02 08:56:07;;;;;;;9.15;5.53;;;;;;;22.40;52.16;101104.13;5018558;28;20017;-75
2021/07/02 08:58:33;;;;;;;16.35;6.80;;;;;;;22.66;52.94;101100.81;5018644;28;20467;-70
2021/07/02 09:00:59;;;;;;;11.27;5.82;;;;;;;22.64;52.73;101102.56;5021382;28;20509;-71
2021/07/02 09:03:35;;;;;;;8.75;5.05;;;;;;;22.68;50.66;101098.22;5019793;28;20053;-70
2021/07/02 09:06:19;;;;;;;7.45;5.00;;;;;;;22.22;52.27;101107.47;5026659;28;20034;-71
2021/07/02 09:09:04;;;;;;;9.52;5.13;;;;;;;22.79;50.27;101100.91;5004538;28;20080;-71
2021/07/02 09:11:31;;;;;;;12.38;5.30;;;;;;;23.44;49.80;101106.50;5026468;28;20403;-71
2021/07/02 09:13:58;;;;;;;10.32;4.70;;;;;;;24.25;47.55;101104.03;5010178;28;20022;-71
2021/07/02 09:16:37;;;;;;;9.27;4.70;;;;;;;23.21;48.04;101099.38;5026501;28;20081;-71
2021/07/02 09:19:27;;;;;;;9.85;5.43;;;;;;;23.55;49.42;101103.91;5002795;28;20026;-71
2021/07/02 09:22:12;;;;;;;8.75;4.72;;;;;;;25.15;47.62;101102.09;5009692;28;20510;-70
2021/07/02 09:24:42;;;;;;;9.77;4.28;;;;;;;25.33;45.02;101101.16;5010082;28;20488;-71
2021/07/02 09:27:22;;;;;;;11.45;4.90;;;;;;;26.21;42.02;101117.34;5019443;28;20104;-71
2021/07/02 09:30:07;;;;;;;10.55;5.47;;;;;;;29.71;34.32;101115.59;5006833;28;20044;-71
2021/07/02 09:32:37;;;;;;;7.60;4.70;;;;;;;29.08;34.79;101110.69;5015436;28;20017;-71
2021/07/02 09:35:03;;;;;;;8.65;4.65;;;;;;;26.15;42.23;101110.38;5019473;28;20092;-71
2021/07/02 09:37:34;;;;;;;6.05;3.90;;;;;;;33.88;27.27;101122.00;5019430;28;20053;-71
2021/07/02 09:40:22;;;;;;;6.68;3.67;;;;;;;36.39;23.53;101118.53;5018210;28;20022;-72
2021/07/02 09:43:08;;;;;;;7.68;4.07;;;;;;;36.21;23.25;101108.78;5014142;28;20033;-72
2021/07/02 09:45:44;;;;;;;6.95;3.95;;;;;;;37.22;23.18;101106.16;5013986;28;20038;-72
2021/07/02 09:48:12;;;;;;;5.55;3.70;;;;;;;32.64;27.76;101101.78;5010776;28;20036;-72
2021/07/02 09:50:42;;;;;;;8.35;4.10;;;;;;;27.48;36.85;101104.53;5010443;28;20314;-72
2021/07/02 09:53:09;;;;;;;6.70;3.92;;;;;;;27.05;38.81;101106.88;5026611;28;20115;-72
2021/07/02 09:55:41;;;;;;;8.85;4.15;;;;;;;33.59;27.65;101113.41;5011158;28;20025;-72
2021/07/02 09:58:12;;;;;;;6.88;4.07;;;;;;;36.59;22.83;101113.09;5011997;28;20395;-73
2021/07/02 10:00:47;;;;;;;5.93;3.97;;;;;;;38.28;20.43;101109.00;5012084;28;20069;-74
2021/07/02 10:03:13;;;;;;;6.60;3.38;;;;;;;37.66;20.60;101104.59;5017478;28;20563;-73
2021/07/02 10:05:56;;;;;;;6.88;3.53;;;;;;;37.36;21.25;101102.66;5010504;28;20026;-75
2021/07/02 10:08:26;;;;;;;6.45;3.35;;;;;;;38.27;20.20;101105.47;5004975;28;20026;-72
2021/07/02 10:11:23;;;;;;;8.48;4.22;;;;;;;35.09;24.31;101088.28;5006732;28;20037;-72
2021/07/02 10:13:49;;;;;;;6.85;4.32;;;;;;;29.78;33.81;101095.06;5004128;28;20045;-73
2021/07/02 10:16:15;;;;;;;6.32;3.70;;;;;;;33.36;26.43;101109.78;5042115;28;20491;-74
2021/07/02 10:18:52;;;;;;;8.32;3.33;;;;;;;35.47;22.31;101108.78;5014508;28;20045;-73
2021/07/02 10:21:19;;;;;;;6.82;3.60;;;;;;;36.50;22.38;101103.72;5016089;28;20030;-71
2021/07/02 10:23:47;;;;;;;6.20;3.65;;;;;;;38.24;19.75;101107.47;5022789;28;20048;-73
2021/07/02 10:29:47;;;;;;;8.18;4.57;;;;;;;33.42;26.79;101096.25;5008550;28;20056;-72
2021/07/02 10:32:13;;;;;;;7.65;3.60;;;;;;;30.10;32.69;101091.66;5016529;28;20419;-71
2021/07/02 10:34:39;;;;;;;7.43;4.47;;;;;;;27.70;36.60;101100.72;5024349;28;20498;-72
2021/07/02 10:37:09;;;;;;;6.38;4.32;;;;;;;27.30;37.51;101106.56;5025113;28;20037;-72
2021/07/02 10:43:07;;;;;;;6.43;3.90;;;;;;;29.59;34.47;101096.38;5019529;28;20068;-73
2021/07/02 10:46:15;;;;;;;7.13;3.60;;;;;;;30.29;32.80;101108.00;5009733;28;20020;-73
2021/07/02 10:49:18;;;;;;;5.50;3.45;;;;;;;29.98;31.27;101098.09;5012177;28;20034;-73
2021/07/02 10:51:51;;;;;;;5.07;3.55;;;;;;;31.34;30.64;101106.03;5007512;28;20033;-72
2021/07/02 10:54:18;;;;;;;6.50;3.28;;;;;;;31.92;29.64;101102.44;5030003;28;20105;-72
2021/07/02 10:56:53;;;;;;;7.57;3.72;;;;;;;32.20;28.95;101104.16;5017795;28;20109;-71
2021/07/02 10:59:19;;;;;;;6.85;4.10;;;;;;;30.86;31.24;101091.44;5023776;28;20025;-71
2021/07/02 11:02:06;;;;;;;6.15;3.80;;;;;;;29.55;34.18;101105.31;5012995;28;20085;-71
2021/07/02 11:04:46;;;;;;;6.57;4.15;;;;;;;28.34;36.73;101106.81;5009977;28;20028;-73
2021/07/02 11:07:12;;;;;;;7.20;4.13;;;;;;;28.62;36.63;101106.28;5020842;28;20049;-73
2021/07/02 11:10:05;;;;;;;8.13;3.70;;;;;;;29.38;35.14;101097.72;5025989;28;20056;-71
2021/07/02 11:12:41;;;;;;;8.18;4.03;;;;;;;29.46;35.18;101104.66;5028457;28;20018;-73
2021/07/02 11:15:14;;;;;;;7.45;4.47;;;;;;;29.25;35.64;101101.53;5016741;28;20084;-71
2021/07/02 11:17:41;;;;;;;9.25;4.10;;;;;;;28.50;36.25;101110.94;5028844;28;20483;-73
2021/07/02 11:20:10;;;;;;;7.15;4.55;;;;;;;28.07;36.70;101114.25;5016652;28;20072;-72
2021/07/02 11:22:40;;;;;;;7.13;4.30;;;;;;;27.58;37.96;101110.63;5020065;28;20032;-73
2021/07/02 11:25:26;;;;;;;9.60;4.88;;;;;;;27.35;39.70;101115.28;5005154;28;20037;-72
2021/07/02 11:27:53;;;;;;;10.30;4.13;;;;;;;26.94;40.42;101111.38;5022890;28;20052;-73